Time;durP1;ratioP1;P1;durP2;ratioP2;P2;SDS_P1;SDS_P2;PMS_P1;PMS_P2;Temp;Humidity;BMP_temperature;BMP_pressure;BME280_temperature;BME280_humidity;BME280_pressure;Samples;Min_cycle;Max_cycle;Signal;HPM_P1;HPM_P2
2022/12/06 00:01:06;;;;;;;9.50;4.75;;;5.60;99.90;;;;;;7376593;19;20011;-46
2022/12/06 00:03:34;;;;;;;10.85;6.43;;;5.60;99.90;;;;;;7375197;19;20022;-53
2022/12/06 00:06:07;;;;;;;12.90;5.13;;;5.60;99.90;;;;;;7382011;19;20018;-44
2022/12/06 00:08:34;;;;;;;8.80;4.85;;;5.60;99.90;;;;;;7380924;19;20022;-52
2022/12/06 00:11:13;;;;;;;13.00;5.07;;;5.60;99.90;;;;;;7378422;19;20052;-47
2022/12/06 00:13:40;;;;;;;11.60;4.80;;;5.60;99.90;;;;;;7373202;19;20033;-47
2022/12/06 00:16:10;;;;;;;12.02;5.43;;;5.60;99.90;;;;;;7374809;19;20018;-43
2022/12/06 00:18:38;;;;;;;10.50;4.95;;;5.60;99.90;;;;;;7380212;19;20029;-53
2022/12/06 00:21:10;;;;;;;7.57;3.70;;;5.60;99.90;;;;;;7379077;19;20513;-52
2022/12/06 00:23:43;;;;;;;7.75;3.88;;;5.60;99.90;;;;;;7381273;19;20589;-44
2022/12/06 00:26:10;;;;;;;9.93;4.78;;;5.50;99.90;;;;;;7373990;19;20021;-45
2022/12/06 00:28:40;;;;;;;8.25;3.92;;;5.60;99.90;;;;;;7378133;19;20574;-52
2022/12/06 00:31:11;;;;;;;10.98;5.00;;;5.50;99.90;;;;;;7381702;19;20130;-52
2022/12/06 00:33:37;;;;;;;10.80;4.25;;;5.50;99.90;;;;;;7379184;19;20026;-52
2022/12/06 00:36:08;;;;;;;9.15;4.15;;;5.50;99.90;;;;;;7380024;19;20028;-52
2022/12/06 00:38:35;;;;;;;11.32;4.63;;;5.50;99.90;;;;;;7378415;19;20011;-45
2022/12/06 00:41:04;;;;;;;9.18;4.22;;;5.50;99.90;;;;;;7370204;19;20061;-44
2022/12/06 00:43:32;;;;;;;11.20;4.43;;;5.50;99.90;;;;;;7373717;19;20516;-46
2022/12/06 00:45:59;;;;;;;10.10;4.38;;;5.50;99.90;;;;;;7374081;19;20014;-49
2022/12/06 00:48:26;;;;;;;10.30;4.80;;;5.50;99.90;;;;;;7381871;19;20019;-51
2022/12/06 00:50:54;;;;;;;9.10;4.47;;;5.50;99.90;;;;;;7381722;19;20015;-52
2022/12/06 00:53:20;;;;;;;9.30;4.22;;;5.40;99.90;;;;;;7378548;19;20390;-45
2022/12/06 00:55:47;;;;;;;11.43;4.47;;;5.40;99.90;;;;;;7379272;19;20018;-52
2022/12/06 00:58:14;;;;;;;9.18;4.13;;;5.40;99.90;;;;;;7382881;19;20022;-52
2022/12/06 01:00:40;;;;;;;11.38;4.63;;;5.40;99.90;;;;;;7379775;19;20485;-47
2022/12/06 01:03:07;;;;;;;11.60;5.63;;;5.40;99.90;;;;;;7373686;19;20647;-47
2022/12/06 01:05:38;;;;;;;9.73;4.43;;;5.40;99.90;;;;;;7377501;19;20011;-52
2022/12/06 01:08:04;;;;;;;10.23;4.50;;;5.40;99.90;;;;;;7377307;19;20044;-44
2022/12/06 01:10:31;;;;;;;8.95;4.45;;;5.40;99.90;;;;;;7378193;19;20085;-51
2022/12/06 01:12:57;;;;;;;11.05;4.63;;;5.40;99.90;;;;;;7377742;19;20057;-52
2022/12/06 01:15:23;;;;;;;11.45;4.00;;;5.40;99.90;;;;;;7381358;19;20014;-52
2022/12/06 01:17:49;;;;;;;7.22;4.47;;;5.40;99.90;;;;;;7381926;19;20596;-52
2022/12/06 01:20:16;;;;;;;10.52;4.53;;;5.40;99.90;;;;;;7380144;19;20578;-52
2022/12/06 01:22:43;;;;;;;12.38;5.53;;;5.40;99.90;;;;;;7381278;19;20356;-52
2022/12/06 01:25:10;;;;;;;7.97;4.50;;;5.40;99.90;;;;;;7375039;19;20721;-48
2022/12/06 01:27:36;;;;;;;10.25;4.88;;;5.40;99.90;;;;;;7374846;19;20608;-46
2022/12/06 01:30:04;;;;;;;11.23;4.55;;;5.40;99.90;;;;;;7371422;19;20485;-44
2022/12/06 01:32:30;;;;;;;13.55;5.38;;;5.40;99.90;;;;;;7375394;19;20038;-47
2022/12/06 01:34:57;;;;;;;11.77;4.38;;;5.40;99.90;;;;;;7376337;19;20029;-44
2022/12/06 01:37:23;;;;;;;13.15;5.15;;;5.40;99.90;;;;;;7373772;19;20494;-51
2022/12/06 01:39:49;;;;;;;10.13;5.18;;;5.40;99.90;;;;;;7377163;19;20014;-45
2022/12/06 01:42:16;;;;;;;13.00;5.03;;;5.40;99.90;;;;;;7374275;19;20029;-46
2022/12/06 01:44:50;;;;;;;10.52;4.88;;;5.40;99.90;;;;;;7377112;19;20018;-52
2022/12/06 01:47:46;;;;;;;9.63;4.93;;;5.40;99.90;;;;;;7375685;19;20019;-51
2022/12/06 01:50:23;;;;;;;10.65;4.60;;;5.40;99.90;;;;;;7375469;19;20018;-43
2022/12/06 01:52:54;;;;;;;10.05;4.60;;;5.40;99.90;;;;;;7370700;19;20074;-45
2022/12/06 01:55:24;;;;;;;9.52;4.30;;;5.40;99.90;;;;;;7373643;19;20018;-46
2022/12/06 01:57:53;;;;;;;12.05;4.57;;;5.40;99.90;;;;;;7378254;19;20019;-52
2022/12/06 02:00:19;;;;;;;10.98;4.72;;;5.40;99.90;;;;;;7378421;19;20018;-52
2022/12/06 02:02:46;;;;;;;9.07;4.50;;;5.40;99.90;;;;;;7379702;19;20010;-52
2022/12/06 02:05:13;;;;;;;12.63;4.47;;;5.40;99.90;;;;;;7378859;19;20409;-52
2022/12/06 02:07:41;;;;;;;7.82;3.95;;;5.40;99.90;;;;;;7377361;19;20029;-51
2022/12/06 02:10:08;;;;;;;9.13;3.03;;;5.40;99.90;;;;;;7378583;19;20086;-47
2022/12/06 02:12:34;;;;;;;10.25;3.10;;;5.40;99.90;;;;;;7372803;19;20520;-47
2022/12/06 02:15:01;;;;;;;5.57;2.88;;;5.40;99.90;;;;;;7369430;19;20040;-45
2022/12/06 02:17:45;;;;;;;9.48;3.13;;;5.30;99.90;;;;;;7375296;19;20014;-48
2022/12/06 02:20:46;;;;;;;5.25;2.45;;;5.30;99.90;;;;;;7371352;19;20038;-47
2022/12/06 02:23:38;;;;;;;7.57;3.03;;;5.40;99.90;;;;;;7367974;19;20420;-52
2022/12/06 02:26:04;;;;;;;;;;;5.30;99.90;;;;;;7377867;19;20021;-52
2022/12/06 02:28:40;;;;;;;4.53;2.40;;;5.30;99.90;;;;;;7376884;19;20298;-52
2022/12/06 02:31:18;;;;;;;6.07;2.60;;;5.30;99.90;;;;;;7376961;19;20010;-52
2022/12/06 02:33:58;;;;;;;6.35;2.97;;;5.30;99.90;;;;;;7378654;19;20030;-52
2022/12/06 02:36:46;;;;;;;7.22;2.78;;;5.30;99.90;;;;;;7375304;19;20019;-52
2022/12/06 02:39:33;;;;;;;6.18;2.67;;;5.30;99.90;;;;;;7371728;19;21817;-48
2022/12/06 02:42:03;;;;;;;4.97;2.42;;;5.30;99.90;;;;;;7365453;19;20022;-48
2022/12/06 02:44:41;;;;;;;6.05;2.70;;;5.30;99.90;;;;;;7368781;19;20288;-45
2022/12/06 02:47:13;;;;;;;5.30;2.13;;;5.30;99.90;;;;;;7368124;19;20786;-48
2022/12/06 02:49:43;;;;;;;;;;;5.30;99.90;;;;;;7372108;19;20679;-48
2022/12/06 02:52:12;;;;;;;5.13;2.22;;;5.20;99.90;;;;;;7372793;19;20299;-52
2022/12/06 02:54:42;;;;;;;7.13;2.50;;;5.20;99.90;;;;;;7372508;19;20387;-45
2022/12/06 02:57:09;;;;;;;6.75;2.55;;;5.20;99.90;;;;;;7368277;19;20362;-48
2022/12/06 02:59:35;;;;;;;5.80;3.22;;;5.20;99.90;;;;;;7370686;19;20018;-49
2022/12/06 03:02:04;;;;;;;5.40;2.47;;;5.20;99.90;;;;;;7368168;19;20015;-48
2022/12/06 03:04:46;;;;;;;4.95;2.20;;;5.20;99.90;;;;;;7371374;19;20018;-47
2022/12/06 03:07:21;;;;;;;5.43;2.40;;;5.20;99.90;;;;;;7367578;19;20022;-48
2022/12/06 03:09:59;;;;;;;11.00;3.35;;;5.20;99.90;;;;;;7369191;19;20047;-45
2022/12/06 03:12:37;;;;;;;3.47;1.80;;;5.20;99.90;;;;;;7367527;19;20045;-48
2022/12/06 03:15:04;;;;;;;7.78;2.00;;;5.20;99.90;;;;;;7372279;19;20435;-44
2022/12/06 03:17:35;;;;;;;4.60;1.90;;;5.20;99.90;;;;;;7372944;19;20807;-46
2022/12/06 03:20:23;;;;;;;3.20;1.83;;;5.20;99.90;;;;;;7362906;19;20407;-48
2022/12/06 03:22:54;;;;;;;3.40;1.67;;;5.20;99.90;;;;;;7365726;19;20022;-45
2022/12/06 03:25:20;;;;;;;4.45;1.73;;;5.20;99.90;;;;;;7369476;19;20382;-45
2022/12/06 03:27:50;;;;;;;4.15;1.98;;;5.10;99.90;;;;;;7368175;19;20018;-46
2022/12/06 03:30:16;;;;;;;3.25;1.52;;;5.10;99.90;;;;;;7366694;19;20025;-45
2022/12/06 03:32:48;;;;;;;4.13;2.15;;;5.10;99.90;;;;;;7367976;19;20024;-47
2022/12/06 03:35:19;;;;;;;3.65;2.28;;;5.10;99.90;;;;;;7367161;19;20023;-47
2022/12/06 03:37:49;;;;;;;5.13;1.80;;;5.10;99.90;;;;;;7368957;19;20625;-47
2022/12/06 03:40:18;;;;;;;5.10;2.00;;;5.00;99.90;;;;;;7366763;19;20019;-44
2022/12/06 03:42:46;;;;;;;5.15;2.00;;;5.00;99.90;;;;;;7365936;19;20061;-45
2022/12/06 03:45:13;;;;;;;4.80;2.00;;;5.00;99.90;;;;;;7367242;19;20019;-44
2022/12/06 03:48:06;;;;;;;5.50;2.72;;;5.00;99.90;;;;;;7368305;19;20451;-44
2022/12/06 03:50:52;;;;;;;;;;;5.00;99.90;;;;;;7370329;19;20018;-45
2022/12/06 03:53:19;;;;;;;5.88;2.10;;;5.00;99.90;;;;;;7364815;19;20010;-44
2022/12/06 03:55:46;;;;;;;4.55;2.60;;;5.00;99.90;;;;;;7369163;19;20011;-46
2022/12/06 03:58:12;;;;;;;7.55;2.88;;;5.00;99.90;;;;;;7365739;19;20570;-45
2022/12/06 04:00:38;;;;;;;7.05;3.45;;;5.00;99.90;;;;;;7365383;19;20050;-44
2022/12/06 04:03:04;;;;;;;5.22;3.10;;;5.00;99.90;;;;;;7370059;19;20010;-46
2022/12/06 04:05:31;;;;;;;6.78;3.20;;;5.00;99.90;;;;;;7369009;19;20018;-46
2022/12/06 04:07:57;;;;;;;6.63;3.20;;;4.90;99.90;;;;;;7372088;19;20428;-52
2022/12/06 04:10:23;;;;;;;6.82;3.00;;;5.00;99.90;;;;;;7374786;19;20366;-48
2022/12/06 04:13:01;;;;;;;7.47;3.70;;;5.00;99.90;;;;;;7375627;19;20014;-52
2022/12/06 04:15:30;;;;;;;7.47;3.50;;;5.00;99.90;;;;;;7370833;19;20018;-49
2022/12/06 04:18:09;;;;;;;8.70;3.25;;;5.00;99.90;;;;;;7383234;19;20369;-52
2022/12/06 04:23:49;;;;;;;5.40;3.00;;;5.00;99.90;;;;;;7381421;19;20052;-50
2022/12/06 04:26:20;;;;;;;7.70;3.47;;;4.90;99.90;;;;;;7382465;19;20283;-52
2022/12/06 04:39:50;;;;;;;5.80;3.13;;;4.70;99.90;;;;;;7382859;19;20019;-51
2022/12/06 04:45:03;;;;;;;7.55;3.08;;;4.60;99.90;;;;;;7375984;19;20022;-49
2022/12/06 04:47:30;;;;;;;13.30;3.47;;;4.60;99.90;;;;;;7375456;19;20054;-49
2022/12/06 04:49:56;;;;;;;5.50;3.17;;;4.60;99.90;;;;;;7374644;19;20026;-47
2022/12/06 04:52:22;;;;;;;6.90;3.88;;;4.60;99.90;;;;;;7372965;19;20026;-45
2022/12/06 04:54:48;;;;;;;9.18;3.60;;;4.60;99.90;;;;;;7375688;19;20023;-49
2022/12/06 04:57:16;;;;;;;6.28;3.25;;;4.60;99.90;;;;;;7375918;19;20490;-45
2022/12/06 04:59:44;;;;;;;8.65;4.00;;;4.60;99.90;;;;;;7374857;19;20014;-48
2022/12/06 05:02:13;;;;;;;7.20;3.70;;;4.70;99.90;;;;;;7374447;19;20354;-44
2022/12/06 05:04:39;;;;;;;7.28;3.10;;;4.60;99.90;;;;;;7376993;19;20026;-44
2022/12/06 05:07:06;;;;;;;8.15;3.10;;;4.60;99.90;;;;;;7374172;19;20094;-47
2022/12/06 05:09:32;;;;;;;6.07;3.22;;;4.60;99.90;;;;;;7380268;19;20358;-53
2022/12/06 05:11:58;;;;;;;5.57;3.50;;;4.60;99.90;;;;;;7379643;19;20051;-53
2022/12/06 05:14:25;;;;;;;7.72;3.50;;;4.60;99.90;;;;;;7376692;19;20352;-53
2022/12/06 05:16:51;;;;;;;11.98;4.15;;;4.60;99.90;;;;;;7380636;19;20021;-51
2022/12/06 05:19:17;;;;;;;8.82;3.22;;;4.60;99.90;;;;;;7377865;19;20019;-50
2022/12/06 05:21:43;;;;;;;7.32;3.08;;;4.50;99.90;;;;;;7379824;19;20018;-50
2022/12/06 05:24:09;;;;;;;6.10;3.28;;;4.40;99.90;;;;;;7380830;19;20019;-53
2022/12/06 05:26:36;;;;;;;8.05;3.03;;;4.40;99.90;;;;;;7381281;19;20018;-51
2022/12/06 05:29:03;;;;;;;6.05;3.20;;;4.30;99.90;;;;;;7365786;19;20066;-47
2022/12/06 05:31:29;;;;;;;5.75;3.60;;;4.30;99.90;;;;;;7372581;19;20385;-52
2022/12/06 05:33:55;;;;;;;8.23;3.28;;;4.20;99.90;;;;;;7373304;19;20019;-52
2022/12/06 05:36:24;;;;;;;7.20;2.80;;;4.10;99.90;;;;;;7370313;19;20015;-51
2022/12/06 05:38:52;;;;;;;4.85;2.63;;;4.10;99.90;;;;;;7371099;19;20026;-53
2022/12/06 05:41:20;;;;;;;6.40;2.85;;;4.10;99.90;;;;;;7371650;19;20093;-51
2022/12/06 05:43:46;;;;;;;5.80;2.95;;;4.10;99.90;;;;;;7372348;19;20022;-51
2022/12/06 05:46:13;;;;;;;6.85;3.30;;;4.10;99.90;;;;;;7367428;19;20028;-44
2022/12/06 05:48:39;;;;;;;6.30;3.00;;;4.10;99.90;;;;;;7370577;19;20021;-52
2022/12/06 05:51:05;;;;;;;8.82;3.15;;;4.10;99.90;;;;;;7368014;19;20022;-53
2022/12/06 05:53:32;;;;;;;5.97;3.08;;;4.10;99.90;;;;;;7368314;19;20019;-47
2022/12/06 05:56:10;;;;;;;6.03;3.22;;;4.10;99.90;;;;;;7364235;19;20019;-45
2022/12/06 05:58:37;;;;;;;7.82;3.50;;;4.10;99.90;;;;;;7365115;19;20056;-45
2022/12/06 06:01:05;;;;;;;10.68;4.15;;;4.10;99.90;;;;;;7361460;19;20010;-44
2022/12/06 06:03:32;;;;;;;7.60;3.67;;;4.10;99.90;;;;;;7361562;19;20117;-45
2022/12/06 06:05:59;;;;;;;7.20;3.63;;;4.10;99.90;;;;;;7361582;19;20036;-51
2022/12/06 06:08:26;;;;;;;7.13;4.47;;;4.10;99.90;;;;;;7374392;19;20022;-51
2022/12/06 06:10:53;;;;;;;6.57;2.97;;;4.10;99.90;;;;;;7370832;19;20640;-51
2022/12/06 06:13:20;;;;;;;7.35;3.83;;;4.10;99.90;;;;;;7371745;19;20048;-52
2022/12/06 06:15:47;;;;;;;10.93;3.80;;;4.10;99.90;;;;;;7368391;19;20022;-48
2022/12/06 06:18:14;;;;;;;8.82;3.63;;;4.10;99.90;;;;;;7362866;19;20348;-47
2022/12/06 06:20:41;;;;;;;7.22;3.50;;;4.10;99.90;;;;;;7364321;19;20018;-48
2022/12/06 06:23:07;;;;;;;5.47;3.30;;;4.20;99.90;;;;;;7360061;19;20019;-46
2022/12/06 06:25:34;;;;;;;5.40;3.15;;;4.10;99.90;;;;;;7357626;19;20022;-48
2022/12/06 06:28:00;;;;;;;8.30;4.28;;;4.20;99.90;;;;;;7358428;19;20026;-47
2022/12/06 06:30:27;;;;;;;7.15;3.40;;;4.20;99.90;;;;;;7355684;19;20019;-47
2022/12/06 06:32:53;;;;;;;6.40;3.20;;;4.20;99.90;;;;;;7356703;19;20030;-44
2022/12/06 06:35:19;;;;;;;8.93;3.58;;;4.10;99.90;;;;;;7360165;19;20026;-46
2022/12/06 06:37:47;;;;;;;7.32;3.97;;;4.10;99.90;;;;;;7362444;19;20101;-50
2022/12/06 06:40:13;;;;;;;7.80;4.07;;;4.10;99.90;;;;;;7365534;19;20024;-45
2022/12/06 06:42:39;;;;;;;8.68;4.28;;;4.20;99.90;;;;;;7360143;19;20649;-44
2022/12/06 06:45:06;;;;;;;7.43;4.00;;;4.10;99.90;;;;;;7359714;19;20633;-43
2022/12/06 06:47:32;;;;;;;9.02;3.65;;;4.10;99.90;;;;;;7362328;19;20026;-46
2022/12/06 06:49:59;;;;;;;9.45;4.35;;;4.10;99.90;;;;;;7361104;19;20077;-43
2022/12/06 06:52:25;;;;;;;11.55;5.20;;;4.00;99.90;;;;;;7366030;19;20022;-52
2022/12/06 06:54:51;;;;;;;9.05;4.38;;;4.00;99.90;;;;;;7369180;19;20025;-53
2022/12/06 06:57:17;;;;;;;9.30;3.60;;;4.00;99.90;;;;;;7370188;19;20018;-52
2022/12/06 06:59:45;;;;;;;11.00;4.13;;;4.10;99.90;;;;;;7366541;19;20021;-44
2022/12/06 07:02:13;;;;;;;6.40;3.88;;;4.00;99.90;;;;;;7356499;19;20427;-45
2022/12/06 07:04:39;;;;;;;6.07;3.80;;;4.00;99.90;;;;;;7363509;19;20011;-44
2022/12/06 07:07:05;;;;;;;8.80;4.20;;;4.00;99.90;;;;;;7361003;19;20026;-51
2022/12/06 07:09:32;;;;;;;10.15;4.53;;;3.90;99.90;;;;;;7368088;19;20022;-51
2022/12/06 07:11:58;;;;;;;9.63;4.47;;;3.80;99.90;;;;;;7369216;19;20085;-53
2022/12/06 07:14:24;;;;;;;6.70;4.47;;;3.80;99.90;;;;;;7369498;19;20113;-51
2022/12/06 07:16:50;;;;;;;7.63;3.80;;;3.70;99.90;;;;;;7369259;19;20042;-52
2022/12/06 07:19:17;;;;;;;9.68;4.00;;;3.60;99.90;;;;;;7358207;19;20014;-46
2022/12/06 07:21:43;;;;;;;8.10;4.55;;;3.60;99.90;;;;;;7357917;19;20046;-45
2022/12/06 07:24:10;;;;;;;9.45;4.60;;;3.50;99.90;;;;;;7355683;19;20448;-47
2022/12/06 07:26:36;;;;;;;9.85;4.22;;;3.50;99.90;;;;;;7358795;19;20672;-49
2022/12/06 07:29:02;;;;;;;9.10;4.32;;;3.40;99.90;;;;;;7363444;19;20010;-53
2022/12/06 07:31:30;;;;;;;7.85;3.92;;;3.40;99.90;;;;;;7366174;19;20026;-53
2022/12/06 07:33:58;;;;;;;15.32;4.53;;;3.40;99.90;;;;;;7368607;19;20022;-51
2022/12/06 07:36:26;;;;;;;8.30;4.05;;;3.30;99.90;;;;;;7364823;19;20025;-49
2022/12/06 07:38:54;;;;;;;7.30;3.83;;;3.20;99.90;;;;;;7366665;19;20014;-49
2022/12/06 07:47:02;;;;;;;11.18;3.65;;;3.00;99.90;;;;;;7357002;19;20022;-48
2022/12/06 07:49:29;;;;;;;8.13;4.10;;;3.00;99.90;;;;;;7357363;19;20019;-47
2022/12/06 07:51:56;;;;;;;7.80;3.83;;;3.00;99.90;;;;;;7365133;19;20595;-44
2022/12/06 07:54:22;;;;;;;8.63;3.92;;;2.90;99.90;;;;;;7365089;19;20117;-43
2022/12/06 07:56:49;;;;;;;9.30;4.53;;;2.90;99.90;;;;;;7367154;19;20398;-44
2022/12/06 07:59:15;;;;;;;7.22;3.50;;;2.80;99.90;;;;;;7361937;19;20387;-45
2022/12/06 08:01:42;;;;;;;7.65;3.90;;;2.80;99.90;;;;;;7369620;19;20114;-47
2022/12/06 08:04:08;;;;;;;8.93;4.00;;;2.70;99.90;;;;;;7361067;19;20022;-49
2022/12/06 08:06:35;;;;;;;8.95;3.70;;;2.70;99.90;;;;;;7366223;19;20041;-45
2022/12/06 08:09:03;;;;;;;6.80;3.97;;;2.70;99.90;;;;;;7365188;19;20077;-49
2022/12/06 08:11:29;;;;;;;10.52;4.10;;;2.70;99.90;;;;;;7367331;19;20621;-46
2022/12/06 08:13:56;;;;;;;29.00;3.75;;;2.70;99.90;;;;;;7359269;19;20891;-46
2022/12/06 08:16:22;;;;;;;15.13;3.03;;;2.60;99.90;;;;;;7363744;19;20022;-44
2022/12/06 08:18:48;;;;;;;23.40;3.33;;;2.60;99.90;;;;;;7369467;19;20015;-52
2022/12/06 08:21:15;;;;;;;7.43;3.28;;;2.60;99.90;;;;;;7372118;19;20056;-48
2022/12/06 08:23:41;;;;;;;6.60;3.60;;;2.70;99.90;;;;;;7370800;19;20032;-52
2022/12/06 08:26:11;;;;;;;6.63;4.07;;;3.00;99.90;;;;;;7370302;19;20117;-52
2022/12/06 08:28:38;;;;;;;8.90;3.85;;;3.10;99.90;;;;;;7375083;19;20014;-50
2022/12/06 08:31:11;;;;;;;6.50;4.40;;;3.20;99.90;;;;;;7373092;19;20392;-52
2022/12/06 08:33:38;;;;;;;7.18;3.78;;;3.30;99.90;;;;;;7369741;19;20022;-52
2022/12/06 08:36:09;;;;;;;9.68;4.57;;;3.50;99.90;;;;;;7371566;19;20487;-52
2022/12/06 08:38:37;;;;;;;8.88;3.97;;;3.80;99.90;;;;;;7374064;19;20014;-51
2022/12/06 08:41:05;;;;;;;8.02;4.13;;;4.00;99.90;;;;;;7366451;19;20022;-52
2022/12/06 08:43:31;;;;;;;8.20;4.50;;;4.00;99.90;;;;;;7368062;19;20015;-51
2022/12/06 08:45:58;;;;;;;8.63;4.10;;;4.10;99.90;;;;;;7366521;19;20798;-51
2022/12/06 08:48:24;;;;;;;7.47;4.35;;;4.30;99.90;;;;;;7371538;19;20482;-50
2022/12/06 08:50:50;;;;;;;7.10;4.68;;;4.40;99.90;;;;;;7367659;19;20029;-52
2022/12/06 08:53:16;;;;;;;6.43;4.15;;;4.50;99.90;;;;;;7366392;19;20029;-46
2022/12/06 08:55:52;;;;;;;5.78;3.38;;;4.50;99.90;;;;;;7366916;19;20022;-45
2022/12/06 08:58:19;;;;;;;5.72;3.60;;;4.70;99.90;;;;;;7362742;19;20019;-46
2022/12/06 09:00:45;;;;;;;7.50;3.78;;;4.80;99.90;;;;;;7364024;19;20109;-47
2022/12/06 09:03:11;;;;;;;6.55;3.35;;;5.20;99.90;;;;;;7363207;19;20023;-48
2022/12/06 09:05:37;;;;;;;8.13;3.80;;;5.20;99.90;;;;;;7365878;19;20041;-45
2022/12/06 09:08:04;;;;;;;6.75;3.55;;;5.30;99.90;;;;;;7362751;19;20046;-45
2022/12/06 09:10:30;;;;;;;7.55;3.58;;;5.30;99.90;;;;;;7365037;19;20061;-51
2022/12/06 09:12:56;;;;;;;8.15;3.72;;;5.20;99.90;;;;;;7372662;19;20070;-52
2022/12/06 09:15:22;;;;;;;6.78;3.40;;;5.20;99.90;;;;;;7367350;19;20018;-51
2022/12/06 09:17:49;;;;;;;5.45;3.50;;;5.10;99.90;;;;;;7364460;19;20014;-52
2022/12/06 09:20:17;;;;;;;5.50;3.50;;;5.20;99.90;;;;;;7362955;19;20035;-53
2022/12/06 09:22:43;;;;;;;5.32;3.42;;;5.30;99.90;;;;;;7370124;19;20070;-52
2022/12/06 09:25:10;;;;;;;7.03;3.90;;;5.40;99.90;;;;;;7362006;19;20021;-52
2022/12/06 09:27:37;;;;;;;7.18;3.53;;;5.40;99.90;;;;;;7363497;19;20040;-53
2022/12/06 09:30:04;;;;;;;5.38;3.05;;;5.30;99.90;;;;;;7364854;19;20042;-51
2022/12/06 09:32:31;;;;;;;7.47;3.17;;;5.30;99.90;;;;;;7366270;19;20026;-48
2022/12/06 09:34:58;;;;;;;5.35;3.60;;;5.20;99.90;;;;;;7360609;19;20561;-53
2022/12/06 09:37:24;;;;;;;7.28;3.55;;;5.20;99.90;;;;;;7367166;19;20574;-48
2022/12/06 09:40:01;;;;;;;5.90;3.15;;;5.30;99.90;;;;;;7355869;19;20041;-47
2022/12/06 09:42:44;;;;;;;6.45;3.63;;;5.40;99.90;;;;;;7360470;19;20046;-48
2022/12/06 09:45:29;;;;;;;5.28;2.80;;;5.50;99.90;;;;;;7364800;19;20111;-50
2022/12/06 09:48:11;;;;;;;6.18;3.33;;;5.60;99.90;;;;;;7362149;19;20486;-47
2022/12/06 09:51:14;;;;;;;6.88;3.13;;;5.70;99.90;;;;;;7361417;19;20014;-45
2022/12/06 09:54:11;;;;;;;5.50;3.10;;;5.70;99.90;;;;;;7367540;19;20025;-52
2022/12/06 09:56:54;;;;;;;5.93;2.72;;;5.70;99.90;;;;;;7364034;19;20018;-52
2022/12/06 09:59:39;;;;;;;4.82;3.00;;;5.70;99.90;;;;;;7367443;19;20017;-50
2022/12/06 10:02:24;;;;;;;4.13;2.60;;;5.70;99.90;;;;;;7368633;19;20489;-52
2022/12/06 10:05:08;;;;;;;3.63;2.45;;;5.70;99.90;;;;;;7358750;19;20024;-43
2022/12/06 10:08:00;;;;;;;5.25;2.60;;;5.60;99.90;;;;;;7356249;19;20021;-50
2022/12/06 10:10:50;;;;;;;4.90;2.90;;;5.60;99.90;;;;;;7360199;19;20018;-52
2022/12/06 10:13:25;;;;;;;3.92;2.10;;;5.60;99.90;;;;;;7354124;19;20390;-51
2022/12/06 10:16:27;;;;;;;5.00;2.63;;;5.60;99.90;;;;;;7358428;19;20018;-50
2022/12/06 10:19:14;;;;;;;4.68;2.38;;;5.60;99.90;;;;;;7354001;19;20014;-47
2022/12/06 10:22:03;;;;;;;4.43;2.95;;;5.70;99.90;;;;;;7358878;19;20037;-47
2022/12/06 10:25:12;;;;;;;6.65;2.70;;;5.80;99.90;;;;;;7357372;19;20026;-51
2022/12/06 10:28:09;;;;;;;5.00;2.30;;;5.80;99.90;;;;;;7355758;19;20046;-49
2022/12/06 10:31:05;;;;;;;3.55;2.10;;;5.80;99.90;;;;;;7357062;19;20018;-45
2022/12/06 10:33:50;;;;;;;4.78;2.55;;;5.80;99.90;;;;;;7356913;19;20419;-46
2022/12/06 10:36:30;;;;;;;4.90;2.40;;;5.80;99.90;;;;;;7354999;19;20189;-46
2022/12/06 10:39:11;;;;;;;4.10;2.30;;;5.90;99.90;;;;;;7354812;19;20010;-46
2022/12/06 10:41:50;;;;;;;5.82;3.22;;;6.10;99.90;;;;;;7360771;19;20462;-46
2022/12/06 10:44:48;;;;;;;4.72;2.58;;;6.00;99.90;;;;;;7350829;19;20058;-47
2022/12/06 10:47:36;;;;;;;4.82;2.17;;;6.00;99.90;;;;;;7358313;19;20030;-47
2022/12/06 10:50:18;;;;;;;4.20;2.50;;;6.50;99.90;;;;;;7359061;19;20035;-45
2022/12/06 10:53:00;;;;;;;3.35;2.15;;;7.50;99.90;;;;;;7355481;19;20018;-49
2022/12/06 10:55:42;;;;;;;3.30;2.53;;;8.00;99.90;;;;;;7353893;19;20018;-47
2022/12/06 10:58:25;;;;;;;4.93;2.33;;;7.90;99.90;;;;;;7357766;19;20015;-47
2022/12/06 11:00:58;;;;;;;4.95;2.30;;;8.20;99.90;;;;;;7351424;19;20033;-46
2022/12/06 11:03:33;;;;;;;4.53;2.10;;;8.20;99.90;;;;;;7355073;19;20053;-45
2022/12/06 11:06:14;;;;;;;8.00;2.47;;;8.10;99.90;;;;;;7357647;19;20021;-46
2022/12/06 11:08:46;;;;;;;6.27;2.47;;;7.90;99.90;;;;;;7359910;19;20019;-45
2022/12/06 11:11:20;;;;;;;3.10;2.10;;;7.80;99.90;;;;;;7356430;19;20037;-46
2022/12/06 11:13:54;;;;;;;5.45;2.22;;;7.70;99.90;;;;;;7354242;19;20501;-52
2022/12/06 11:16:26;;;;;;;4.53;2.42;;;7.70;99.90;;;;;;7353841;19;20018;-52
2022/12/06 11:18:59;;;;;;;3.17;2.13;;;7.50;99.90;;;;;;7354852;19;20015;-50
2022/12/06 11:21:55;;;;;;;4.65;2.22;;;7.30;99.90;;;;;;7358119;19;20243;-49
2022/12/06 11:24:38;;;;;;;5.07;2.50;;;7.30;99.90;;;;;;7354540;19;20018;-45
2022/12/06 11:27:08;;;;;;;4.57;2.08;;;7.30;99.90;;;;;;7364206;19;20600;-43
2022/12/06 11:29:36;;;;;;;5.55;2.40;;;7.20;99.90;;;;;;7366669;19;20477;-45
2022/12/06 11:32:09;;;;;;;4.20;2.30;;;7.10;99.90;;;;;;7366819;19;20019;-43
2022/12/06 11:34:40;;;;;;;4.90;2.67;;;7.20;99.90;;;;;;7358991;19;20022;-47
2022/12/06 11:37:17;;;;;;;5.05;2.08;;;7.10;99.90;;;;;;7366147;19;20024;-46
2022/12/06 11:39:44;;;;;;;4.18;2.22;;;7.10;99.90;;;;;;7361608;19;20363;-46
2022/12/06 11:42:14;;;;;;;6.18;3.05;;;7.10;99.90;;;;;;7363601;19;20022;-47
2022/12/06 11:44:43;;;;;;;4.05;1.85;;;7.00;99.90;;;;;;7361908;19;20045;-44
2022/12/06 11:47:15;;;;;;;4.82;2.70;;;6.90;99.90;;;;;;7362207;19;20879;-44
2022/12/06 11:49:42;;;;;;;;;;;7.10;99.90;;;;;;7365833;19;20033;-44
2022/12/06 11:52:33;;;;;;;3.72;2.00;;;7.20;99.90;;;;;;7363150;19;20383;-45
2022/12/06 11:55:06;;;;;;;3.67;2.20;;;7.40;99.90;;;;;;7360989;19;20350;-43
2022/12/06 11:57:37;;;;;;;5.55;2.08;;;7.80;99.90;;;;;;7360762;19;20032;-44
2022/12/06 12:00:19;;;;;;;5.43;1.80;;;8.40;99.90;;;;;;7359212;19;20019;-44
2022/12/06 12:02:48;;;;;;;4.10;1.83;;;8.90;99.90;;;;;;7365292;19;20025;-45
2022/12/06 12:05:37;;;;;;;4.47;1.80;;;8.80;99.90;;;;;;7361733;19;20604;-45
2022/12/06 12:08:18;;;;;;;3.35;1.75;;;8.80;99.90;;;;;;7358616;19;20018;-47
2022/12/06 12:11:03;;;;;;;4.28;1.70;;;8.30;99.90;;;;;;7360628;19;20510;-47
2022/12/06 12:13:45;;;;;;;3.00;1.70;;;7.90;99.90;;;;;;7363930;19;20035;-44
2022/12/06 12:16:19;;;;;;;2.95;1.70;;;7.70;99.90;;;;;;7361751;19;20064;-45
2022/12/06 12:19:20;;;;;;;4.38;1.95;;;7.60;99.90;;;;;;7359460;19;20022;-50
2022/12/06 12:21:47;;;;;;;5.32;1.80;;;7.40;99.90;;;;;;7361460;19;20027;-51
2022/12/06 12:24:53;;;;;;;3.45;1.90;;;7.40;99.90;;;;;;7363000;19;20370;-47
2022/12/06 12:27:35;;;;;;;4.70;1.70;;;7.40;99.90;;;;;;7360694;19;20113;-49
2022/12/06 12:30:24;;;;;;;3.15;1.85;;;7.40;99.90;;;;;;7353211;19;20019;-50
2022/12/06 12:33:05;;;;;;;5.95;1.98;;;7.30;99.90;;;;;;7361222;19;20078;-55
2022/12/06 12:35:43;;;;;;;5.10;1.80;;;7.50;99.90;;;;;;7361071;19;20493;-51
2022/12/06 12:38:10;;;;;;;3.38;1.85;;;7.50;99.90;;;;;;7358636;19;20342;-50
2022/12/06 12:40:38;;;;;;;3.42;1.60;;;7.50;99.90;;;;;;7358977;19;20018;-48
2022/12/06 12:43:05;;;;;;;3.60;1.52;;;7.60;99.90;;;;;;7359205;19;20014;-51
2022/12/06 12:45:31;;;;;;;3.05;1.50;;;7.90;99.90;;;;;;7363633;19;20321;-51
2022/12/06 12:47:58;;;;;;;3.70;1.58;;;8.00;99.90;;;;;;7353102;19;20591;-50
2022/12/06 12:50:25;;;;;;;8.18;3.95;;;8.20;99.90;;;;;;7362377;19;20426;-50
2022/12/06 12:52:51;;;;;;;4.25;1.58;;;8.10;99.90;;;;;;7361799;19;20141;-50
2022/12/06 12:55:25;;;;;;;3.00;1.70;;;8.00;99.90;;;;;;7360116;19;20085;-51
2022/12/06 12:57:57;;;;;;;2.65;1.63;;;7.90;99.90;;;;;;7356881;19;20970;-51
2022/12/06 13:00:26;;;;;;;4.18;1.90;;;7.90;99.90;;;;;;7362524;19;20015;-51
2022/12/06 13:02:58;;;;;;;5.55;1.90;;;7.90;99.90;;;;;;7360488;19;20022;-50
2022/12/06 13:05:30;;;;;;;5.15;1.52;;;7.80;99.90;;;;;;7363110;19;20380;-50
2022/12/06 13:08:03;;;;;;;;;;;7.80;99.90;;;;;;7357556;19;20129;-47
2022/12/06 13:10:35;;;;;;;4.70;2.03;;;7.80;99.90;;;;;;7364373;19;19927;-44
2022/12/06 13:13:15;;;;;;;3.58;2.05;;;7.80;99.90;;;;;;7361547;19;20359;-46
2022/12/06 13:15:50;;;;;;;3.47;1.50;;;7.90;99.90;;;;;;7362275;19;20039;-47
2022/12/06 13:18:18;;;;;;;2.47;1.63;;;7.90;99.90;;;;;;7358051;19;20393;-46
2022/12/06 13:20:47;;;;;;;3.90;1.60;;;7.90;99.90;;;;;;7359516;19;20054;-43
2022/12/06 13:23:22;;;;;;;5.00;1.92;;;7.90;99.90;;;;;;7358789;19;20041;-44
2022/12/06 13:26:04;;;;;;;3.95;1.63;;;8.00;99.90;;;;;;7359794;19;20515;-44
2022/12/06 13:28:38;;;;;;;3.70;2.00;;;8.00;99.90;;;;;;7356614;19;20037;-47
2022/12/06 13:31:11;;;;;;;4.43;1.50;;;8.00;99.90;;;;;;7356981;19;20026;-43
2022/12/06 13:33:48;;;;;;;2.90;1.40;;;7.90;99.90;;;;;;7361324;19;20054;-45
2022/12/06 13:36:15;;;;;;;4.53;1.42;;;7.80;99.90;;;;;;7355405;19;20026;-46
2022/12/06 13:38:42;;;;;;;2.97;1.52;;;7.80;99.90;;;;;;7361699;19;20052;-48
2022/12/06 13:42:16;;;;;;;3.92;1.50;;;7.70;99.90;;;;;;7355140;19;20030;-45
2022/12/06 13:44:41;;;;;;;2.67;1.30;;;7.60;99.90;;;;;;7357114;19;20105;-45